Time;durP1;ratioP1;P1;durP2;ratioP2;P2;SDS_P1;SDS_P2;PMS_P1;PMS_P2;Temp;Humidity;BMP_temperature;BMP_pressure;BME280_temperature;BME280_humidity;BME280_pressure;Samples;Min_cycle;Max_cycle;Signal;HPM_P1;HPM_P2
2022/12/13 00:01:27;;;;;;;0.20;0.20;;;;;;;-2.60;67.58;101397.63;5086780;28;20032;-82
2022/12/13 00:04:01;;;;;;;0.20;0.20;;;;;;;-2.57;67.67;101395.97;5097074;28;20040;-82
2022/12/13 00:06:29;;;;;;;0.20;0.20;;;;;;;-2.61;67.53;101392.38;5092766;28;20395;-83
2022/12/13 00:08:57;;;;;;;0.40;0.40;;;;;;;-2.63;67.43;101394.91;5094625;28;20039;-82
2022/12/13 00:11:24;;;;;;;0.20;0.20;;;;;;;-2.64;67.39;101390.53;5102408;28;20017;-82
2022/12/13 00:13:50;;;;;;;0.17;0.17;;;;;;;-2.66;67.33;101392.16;5098987;28;20032;-82
2022/12/13 00:16:18;;;;;;;0.20;0.20;;;;;;;-2.67;67.54;101395.56;5108367;28;20118;-82
2022/12/13 00:18:49;;;;;;;0.28;0.28;;;;;;;-2.65;67.65;101390.47;5105163;28;20058;-82
2022/12/13 00:21:18;;;;;;;0.20;0.20;;;;;;;-2.68;67.36;101388.63;5101359;28;20115;-82
2022/12/13 00:23:45;;;;;;;1.95;1.85;;;;;;;-2.68;67.63;101386.03;5108587;28;20024;-82
2022/12/13 00:26:14;;;;;;;0.20;0.20;;;;;;;-2.69;67.47;101379.06;5100369;28;20024;-83
2022/12/13 00:28:41;;;;;;;0.20;0.20;;;;;;;-2.70;67.65;101385.09;5092956;28;20039;-83
2022/12/13 00:31:08;;;;;;;0.20;0.20;;;;;;;-2.69;67.54;101391.13;5080597;28;20428;-82
2022/12/13 00:33:38;;;;;;;0.10;0.10;;;;;;;-2.67;67.28;101389.50;5093836;28;20024;-82
2022/12/13 00:36:06;;;;;;;0.10;0.10;;;;;;;-2.70;67.51;101387.69;5100287;28;20043;-83
2022/12/13 00:38:34;;;;;;;0.20;0.20;;;;;;;-2.72;67.79;101381.53;5100480;28;20031;-82
2022/12/13 00:43:49;;;;;;;0.28;0.28;;;;;;;-2.72;67.44;101383.25;5123198;27;20700;-83
2022/12/13 00:46:17;;;;;;;0.30;0.30;;;;;;;-2.71;67.82;101374.66;5125532;28;20031;-83
2022/12/13 00:48:49;;;;;;;0.20;0.20;;;;;;;-2.71;67.38;101361.69;5114911;28;20024;-84
2022/12/13 00:51:16;;;;;;;0.10;0.10;;;;;;;-2.74;67.85;101366.72;5119610;28;20433;-81
2022/12/13 00:53:42;;;;;;;0.35;0.35;;;;;;;-2.77;67.87;101362.28;5116795;28;20020;-82
2022/12/13 00:56:12;;;;;;;0.65;0.65;;;;;;;-2.76;67.29;101364.94;5123820;28;20041;-82
2022/12/13 00:58:39;;;;;;;0.28;0.28;;;;;;;-2.78;67.13;101364.00;5126338;28;20035;-82
2022/12/13 01:01:09;;;;;;;0.55;0.55;;;;;;;-2.79;67.77;101358.72;5107403;28;20043;-83
2022/12/13 01:03:35;;;;;;;1.45;1.45;;;;;;;-2.80;67.27;101364.75;5100905;28;20024;-82
2022/12/13 01:06:07;;;;;;;0.10;0.10;;;;;;;-2.82;67.30;101361.22;5100899;28;20050;-81
2022/12/13 01:08:36;;;;;;;0.20;0.20;;;;;;;-2.81;67.02;101370.78;5123349;28;20030;-81
2022/12/13 01:11:06;;;;;;;0.20;0.20;;;;;;;-2.83;67.46;101362.94;5106107;28;20282;-83
2022/12/13 01:13:36;;;;;;;0.20;0.20;;;;;;;-2.84;67.54;101361.16;5106988;28;20039;-83
2022/12/13 01:16:05;;;;;;;0.30;0.30;;;;;;;-2.84;67.33;101358.56;5080361;28;20031;-83
2022/12/13 01:18:32;;;;;;;0.20;0.20;;;;;;;-2.85;67.38;101356.78;5103573;28;20039;-83
2022/12/13 01:21:06;;;;;;;0.20;0.20;;;;;;;-2.82;67.36;101356.91;5116380;28;20402;-82
2022/12/13 01:23:34;;;;;;;0.20;0.20;;;;;;;-2.85;67.31;101358.50;5114747;28;20126;-83
2022/12/13 01:26:03;;;;;;;0.20;0.20;;;;;;;-2.86;67.30;101356.72;5100689;28;20092;-84
2022/12/13 01:28:30;;;;;;;0.20;0.20;;;;;;;-2.88;67.27;101354.03;5113924;28;20028;-84
2022/12/13 01:30:59;;;;;;;0.17;0.17;;;;;;;-2.87;67.75;101360.13;5118420;28;20031;-81
2022/12/13 01:33:26;;;;;;;3.63;2.67;;;;;;;-2.87;67.33;101357.53;5127224;27;20079;-84
2022/12/13 01:35:53;;;;;;;0.20;0.20;;;;;;;-2.89;67.30;101364.34;5141053;27;20046;-84
2022/12/13 01:38:20;;;;;;;0.13;0.13;;;;;;;-2.90;66.98;101365.16;5120876;28;20039;-84
2022/12/13 01:40:49;;;;;;;0.20;0.20;;;;;;;-2.93;67.11;101364.25;5119544;28;20088;-83
2022/12/13 01:43:16;;;;;;;0.20;0.20;;;;;;;-2.93;67.81;101353.88;5126736;28;20395;-83
2022/12/13 01:45:43;;;;;;;0.20;0.20;;;;;;;-2.91;67.21;101363.41;5105000;28;20096;-83
2022/12/13 01:48:15;;;;;;;0.10;0.10;;;;;;;-2.91;67.35;101358.22;5115392;28;20105;-81
2022/12/13 01:50:47;;;;;;;0.20;0.20;;;;;;;-2.93;67.56;101353.88;5121100;28;20041;-84
2022/12/13 01:53:19;;;;;;;0.22;0.22;;;;;;;-2.91;67.30;101363.41;5117346;28;20047;-83
2022/12/13 01:55:49;;;;;;;0.20;0.20;;;;;;;-2.95;67.01;101362.41;5115095;28;20035;-83
2022/12/13 01:58:17;;;;;;;0.35;0.35;;;;;;;-2.97;67.62;101356.25;5124660;28;20096;-83
2022/12/13 02:00:44;;;;;;;0.50;0.50;;;;;;;-2.96;67.60;101353.72;5120979;28;20094;-83
2022/12/13 02:03:11;;;;;;;0.10;0.10;;;;;;;-2.96;67.29;101353.72;5112418;28;20161;-84
2022/12/13 02:05:43;;;;;;;0.20;0.20;;;;;;;-2.96;68.16;101351.13;5101661;28;20047;-83
2022/12/13 02:08:13;;;;;;;0.20;0.20;;;;;;;-2.97;67.98;101351.94;5104713;28;20020;-84
2022/12/13 02:10:40;;;;;;;0.30;0.30;;;;;;;-2.96;67.78;101348.53;5098054;28;20493;-83
2022/12/13 02:13:07;;;;;;;0.30;0.30;;;;;;;-2.97;67.06;101344.16;5110275;28;20024;-84
2022/12/13 02:15:48;;;;;;;0.20;0.20;;;;;;;-2.94;67.21;101349.50;5118135;28;20016;-81
2022/12/13 02:24:36;;;;;;;0.20;0.20;;;;;;;-2.93;67.25;101350.38;5112844;27;20363;-82
2022/12/13 02:30:10;;;;;;;0.27;0.27;;;;;;;-3.03;67.79;101345.63;5111607;27;1928125;-81
2022/12/13 02:32:49;;;;;;;0.20;0.20;;;;;;;-2.95;67.59;101344.25;5170153;27;20054;-81
2022/12/13 02:35:40;;;;;;;0.30;0.30;;;;;;;-2.95;67.23;101337.34;5174082;27;20023;-81
2022/12/13 02:38:17;;;;;;;0.30;0.30;;;;;;;-2.94;67.23;101338.22;5156660;27;20378;-81
2022/12/13 02:40:53;;;;;;;0.85;0.85;;;;;;;-2.96;67.42;101324.31;5155065;27;20050;-81
2022/12/13 02:43:24;;;;;;;0.20;0.20;;;;;;;-2.98;67.29;101332.03;5159669;27;20387;-81
2022/12/13 02:45:56;;;;;;;0.20;0.20;;;;;;;-3.00;67.49;101331.06;5167037;27;20030;-81
2022/12/13 02:48:27;;;;;;;0.20;0.20;;;;;;;-2.99;67.41;101325.06;5170262;27;20019;-82
2022/12/13 02:50:56;;;;;;;0.20;0.20;;;;;;;-3.02;67.17;101332.72;5175478;27;20037;-82
2022/12/13 02:53:23;;;;;;;0.30;0.30;;;;;;;-3.02;67.75;101329.25;5176199;27;20031;-83
2022/12/13 02:55:49;;;;;;;2.40;2.20;;;;;;;-3.03;66.99;101323.16;5158104;27;20061;-83
2022/12/13 02:58:20;;;;;;;0.20;0.20;;;;;;;-3.04;67.36;101329.19;5156973;27;20023;-82
2022/12/13 03:03:51;;;;;;;0.20;0.20;;;;;;;-3.05;67.79;101323.91;5072994;27;1885737;-81
2022/12/13 03:06:36;;;;;;;0.20;0.20;;;;;;;-3.03;67.61;101317.97;5124925;28;20067;-81
2022/12/13 03:18:02;;;;;;;0.20;0.20;;;;;;;-3.04;67.65;101321.41;5113660;27;20380;-82
2022/12/13 03:20:29;;;;;;;0.13;0.13;;;;;;;-3.07;67.77;101323.84;5106921;28;20039;-82
2022/12/13 03:22:56;;;;;;;0.20;0.20;;;;;;;-3.06;67.78;101327.34;5095176;28;20059;-82
2022/12/13 03:25:28;;;;;;;0.20;0.20;;;;;;;-3.04;67.79;101334.38;5093909;28;20038;-82
2022/12/13 03:27:54;;;;;;;0.40;0.40;;;;;;;-3.05;67.44;101327.41;5096281;28;20028;-83
2022/12/13 03:30:21;;;;;;;0.30;0.30;;;;;;;-3.05;67.98;101335.19;5095852;28;20025;-82
2022/12/13 03:32:47;;;;;;;0.20;0.20;;;;;;;-3.05;67.71;101330.00;5092261;28;20395;-82
2022/12/13 03:35:13;;;;;;;0.52;0.52;;;;;;;-3.06;67.71;101325.63;5108482;28;20043;-82
2022/12/13 03:37:39;;;;;;;1.75;1.65;;;;;;;-3.08;68.33;101324.66;5100670;28;20051;-81
2022/12/13 03:40:05;;;;;;;0.30;0.30;;;;;;;-3.06;67.78;101332.53;5103646;28;20111;-81
2022/12/13 03:42:32;;;;;;;0.20;0.20;;;;;;;-3.08;67.77;101324.66;5116064;28;20032;-81
2022/12/13 03:44:58;;;;;;;0.20;0.20;;;;;;;-3.07;67.83;101325.56;5126730;28;20046;-81
2022/12/13 03:47:27;;;;;;;0.20;0.20;;;;;;;-3.07;67.55;101321.25;5116815;28;20028;-82
2022/12/13 03:49:54;;;;;;;0.20;0.20;;;;;;;-3.09;67.61;101322.88;5103850;28;20098;-81
2022/12/13 03:52:21;;;;;;;0.20;0.20;;;;;;;-3.11;67.27;101324.53;5094454;28;20561;-82
2022/12/13 03:54:47;;;;;;;0.20;0.20;;;;;;;-3.13;67.27;101318.41;5095795;28;20067;-82
2022/12/13 03:57:14;;;;;;;0.20;0.20;;;;;;;-3.14;68.02;101324.41;5096758;28;20028;-82
2022/12/13 03:59:40;;;;;;;0.57;0.57;;;;;;;-3.14;67.68;101321.81;5093596;28;20062;-81
2022/12/13 04:02:06;;;;;;;3.20;1.58;;;;;;;-3.14;67.59;101322.72;5107898;28;20019;-82
2022/12/13 04:04:32;;;;;;;0.20;0.20;;;;;;;-3.13;67.64;101318.41;5093473;28;20063;-82
2022/12/13 04:06:58;;;;;;;0.20;0.20;;;;;;;-3.13;67.66;101318.41;5102088;28;20017;-81
2022/12/13 04:09:24;;;;;;;0.10;0.10;;;;;;;-3.12;67.94;101320.19;5114728;28;20042;-81
2022/12/13 04:14:37;;;;;;;0.20;0.20;;;;;;;-3.12;67.54;101317.59;5098335;28;20060;-82
2022/12/13 04:17:03;;;;;;;0.20;0.20;;;;;;;-3.12;67.48;101312.41;5092883;28;20030;-82
2022/12/13 04:19:29;;;;;;;0.20;0.20;;;;;;;-3.12;67.83;101315.88;5094762;28;20032;-81
2022/12/13 04:21:55;;;;;;;0.20;0.20;;;;;;;-3.12;67.46;101315.00;5092410;28;20491;-81
2022/12/13 04:24:24;;;;;;;0.15;0.15;;;;;;;-3.11;67.83;101320.22;5108726;28;20036;-80
2022/12/13 04:26:50;;;;;;;0.20;0.20;;;;;;;-3.12;68.02;101309.81;5121391;28;20017;-81
2022/12/13 04:29:16;;;;;;;0.20;0.20;;;;;;;-3.11;67.97;101309.88;5091694;28;20020;-82
2022/12/13 04:31:42;;;;;;;0.20;0.20;;;;;;;-3.10;68.25;101305.59;5080048;28;20025;-81
2022/12/13 04:34:08;;;;;;;0.20;0.20;;;;;;;-3.11;68.16;101309.00;5080627;28;20028;-83
2022/12/13 04:36:34;;;;;;;0.20;0.20;;;;;;;-3.12;68.40;101304.63;5078334;28;20030;-83
2022/12/13 04:39:02;;;;;;;0.10;0.10;;;;;;;-3.12;68.13;101304.63;5079748;28;20395;-84
2022/12/13 04:41:29;;;;;;;0.20;0.20;;;;;;;-3.12;67.91;101302.03;5083100;28;20025;-83
2022/12/13 04:43:55;;;;;;;0.20;0.20;;;;;;;-3.14;68.25;101307.16;5084728;28;20024;-83
2022/12/13 04:46:21;;;;;;;0.20;0.20;;;;;;;-3.12;67.80;101307.22;5077295;28;20652;-83
2022/12/13 04:48:48;;;;;;;0.20;0.20;;;;;;;-3.14;68.38;101298.47;5074162;28;20483;-83
2022/12/13 04:51:15;;;;;;;0.20;0.20;;;;;;;-3.14;68.13;101303.66;5073375;28;20041;-80
2022/12/13 04:53:41;;;;;;;0.20;0.20;;;;;;;-3.15;67.69;101307.09;5082102;28;20060;-83
2022/12/13 04:56:07;;;;;;;0.20;0.20;;;;;;;-3.15;67.72;101304.50;5079832;28;20043;-83
2022/12/13 04:58:34;;;;;;;0.20;0.20;;;;;;;-3.16;67.88;101300.13;5078739;28;20036;-83
2022/12/13 05:01:00;;;;;;;0.20;0.20;;;;;;;-3.15;68.13;101291.53;5078348;28;20040;-83
2022/12/13 05:03:26;;;;;;;0.20;0.20;;;;;;;-3.16;68.59;101297.53;5076522;28;20033;-83
2022/12/13 05:05:52;;;;;;;0.20;0.20;;;;;;;-3.14;68.28;101298.47;5082107;28;20392;-83
2022/12/13 05:08:19;;;;;;;0.20;0.20;;;;;;;-3.13;68.29;101289.88;5079508;28;20046;-83
2022/12/13 05:10:45;;;;;;;0.20;0.20;;;;;;;-3.12;68.34;101289.94;5082192;28;20029;-83
2022/12/13 05:13:11;;;;;;;0.20;0.20;;;;;;;-3.11;68.78;101285.66;5086582;28;20171;-83
2022/12/13 05:15:37;;;;;;;1.75;1.75;;;;;;;-3.09;68.24;101287.50;5091817;28;20030;-80
2022/12/13 05:18:05;;;;;;;2.13;1.20;;;;;;;-3.10;68.36;101290.91;5096659;28;20572;-83
2022/12/13 05:20:35;;;;;;;0.20;0.20;;;;;;;-3.12;68.33;101287.34;5084916;28;20040;-83
2022/12/13 05:23:01;;;;;;;0.20;0.20;;;;;;;-3.13;67.79;101295.06;5083001;28;20028;-83
2022/12/13 05:25:27;;;;;;;0.10;0.10;;;;;;;-3.14;68.60;101293.28;5090223;28;20573;-83
2022/12/13 05:27:54;;;;;;;0.20;0.20;;;;;;;-3.14;68.71;101288.09;5098862;28;20060;-83
2022/12/13 05:30:20;;;;;;;0.20;0.20;;;;;;;-3.14;68.52;101298.47;5087961;28;20032;-83
2022/12/13 05:32:46;;;;;;;0.20;0.20;;;;;;;-3.13;68.79;101295.06;5086414;28;20578;-83
2022/12/13 05:35:14;;;;;;;0.20;0.20;;;;;;;-3.11;68.79;101289.13;5093576;28;20039;-83
2022/12/13 05:37:40;;;;;;;0.20;0.20;;;;;;;-3.10;68.72;101290.91;5077047;28;20040;-83
2022/12/13 05:40:08;;;;;;;0.20;0.20;;;;;;;-3.08;68.87;101293.56;5078479;28;20039;-83
2022/12/13 05:42:37;;;;;;;1.17;1.17;;;;;;;-3.07;68.54;101295.34;5080632;28;20020;-83
2022/12/13 05:45:06;;;;;;;0.30;0.30;;;;;;;-3.08;68.10;101293.56;5079921;28;20059;-84
2022/12/13 05:47:32;;;;;;;0.20;0.20;;;;;;;-3.07;68.05;101290.16;5081953;28;20391;-83
2022/12/13 05:49:58;;;;;;;0.30;0.30;;;;;;;-3.08;68.30;101285.78;5079410;28;20020;-83
2022/12/13 05:52:24;;;;;;;0.20;0.20;;;;;;;-3.07;68.59;101284.09;5077536;28;20039;-84
2022/12/13 05:54:55;;;;;;;0.20;0.20;;;;;;;-3.06;68.08;101281.56;5077149;28;20162;-83
2022/12/13 05:57:21;;;;;;;0.20;0.20;;;;;;;-3.07;67.92;101284.97;5078008;28;20066;-84
2022/12/13 05:59:47;;;;;;;0.20;0.20;;;;;;;-3.06;67.65;101286.75;5080697;28;20029;-83
2022/12/13 06:02:13;;;;;;;0.28;0.28;;;;;;;-3.07;68.08;101284.09;5086404;28;20020;-83
2022/12/13 06:04:39;;;;;;;0.20;0.20;;;;;;;-3.08;67.99;101278.00;5095223;28;20028;-83
2022/12/13 06:07:05;;;;;;;0.20;0.20;;;;;;;-3.09;68.63;101273.63;5094186;28;20059;-82
2022/12/13 06:09:32;;;;;;;0.20;0.20;;;;;;;-3.11;68.39;101276.16;5080048;28;20025;-83
2022/12/13 06:11:58;;;;;;;0.40;0.40;;;;;;;-3.11;67.95;101278.75;5077989;28;20045;-83
2022/12/13 06:14:24;;;;;;;0.20;0.20;;;;;;;-3.11;68.13;101267.50;5082842;28;20032;-83
2022/12/13 06:16:52;;;;;;;0.20;0.20;;;;;;;-3.12;68.16;101268.34;5080642;28;20502;-84
2022/12/13 06:19:20;;;;;;;0.20;0.20;;;;;;;-3.13;68.09;101263.97;5083808;28;20423;-83
2022/12/13 06:21:46;;;;;;;1.48;0.93;;;;;;;-3.14;68.35;101267.38;5078006;28;20099;-80
2022/12/13 06:24:14;;;;;;;0.20;0.20;;;;;;;-3.13;68.00;101271.75;5080440;28;20023;-83
2022/12/13 06:26:40;;;;;;;0.20;0.20;;;;;;;-3.16;67.65;101263.84;5082261;28;20483;-81
2022/12/13 06:29:06;;;;;;;0.20;0.20;;;;;;;-3.19;68.31;101263.69;5079499;28;20029;-81
2022/12/13 06:31:32;;;;;;;0.20;0.20;;;;;;;-3.20;67.77;101277.47;5078874;28;20115;-81
2022/12/13 06:34:06;;;;;;;0.20;0.20;;;;;;;-3.20;67.72;101275.78;5083893;28;20032;-82
2022/12/13 06:36:32;;;;;;;0.20;0.20;;;;;;;-3.24;68.11;101281.63;5076157;28;20039;-81
2022/12/13 06:39:06;;;;;;;0.20;0.20;;;;;;;-3.21;67.75;101286.09;5077062;28;20033;-81
2022/12/13 06:41:36;;;;;;;0.20;0.20;;;;;;;-3.25;68.07;101280.75;5086307;28;20106;-81
2022/12/13 06:44:03;;;;;;;1.40;1.33;;;;;;;-3.27;67.34;101287.56;5095894;28;20080;-83
2022/12/13 06:46:31;;;;;;;1.35;1.05;;;;;;;-3.27;67.42;101284.09;5099757;28;20067;-83
2022/12/13 06:48:57;;;;;;;4.97;4.50;;;;;;;-3.29;67.40;101289.22;5091927;28;20035;-81
2022/12/13 06:51:26;;;;;;;0.20;0.20;;;;;;;-3.29;67.73;101288.31;5088734;28;20063;-83
2022/12/13 06:53:52;;;;;;;0.20;0.20;;;;;;;-3.31;67.52;101288.28;5088854;28;20096;-83
2022/12/13 06:56:21;;;;;;;0.20;0.20;;;;;;;-3.32;68.01;101289.09;5096278;28;20034;-82
2022/12/13 06:58:48;;;;;;;0.20;0.20;;;;;;;-3.33;67.68;101292.50;5086268;28;20028;-81
2022/12/13 07:01:20;;;;;;;1.67;1.58;;;;;;;-3.35;67.42;101285.47;5087499;28;20031;-81
2022/12/13 07:03:46;;;;;;;0.20;0.20;;;;;;;-3.37;67.25;101280.22;5086525;28;20050;-82
2022/12/13 07:06:15;;;;;;;0.20;0.20;;;;;;;-3.38;67.85;101278.44;5101885;28;20024;-80
2022/12/13 07:08:43;;;;;;;0.30;0.30;;;;;;;-3.40;66.92;101280.09;5093625;28;20042;-82
2022/12/13 07:11:28;;;;;;;0.68;0.47;;;;;;;-3.38;67.84;101278.44;5083566;28;20393;-82
2022/12/13 07:13:54;;;;;;;0.20;0.20;;;;;;;-3.43;67.58;101283.44;5095869;28;20082;-82
2022/12/13 07:16:22;;;;;;;2.05;1.95;;;;;;;-3.43;67.79;101287.72;5085168;28;20028;-83
2022/12/13 07:18:54;;;;;;;0.20;0.20;;;;;;;-3.42;67.56;101287.78;5093498;28;20468;-81
2022/12/13 07:21:20;;;;;;;0.20;0.20;;;;;;;-3.44;67.79;101285.94;5099217;28;20028;-83
2022/12/13 07:23:46;;;;;;;0.20;0.20;;;;;;;-3.44;67.43;101288.53;5097931;28;20016;-81
2022/12/13 07:26:13;;;;;;;0.10;0.10;;;;;;;-3.45;67.51;101287.66;5105232;28;20048;-80
2022/12/13 07:28:39;;;;;;;0.20;0.20;;;;;;;-3.46;67.31;101292.78;5105635;28;20043;-82
2022/12/13 07:31:07;;;;;;;0.20;0.20;;;;;;;-3.46;67.80;101292.78;5100158;28;20089;-84
2022/12/13 07:33:34;;;;;;;0.82;0.82;;;;;;;-3.46;67.54;101301.44;5100544;28;20040;-81
2022/12/13 07:36:05;;;;;;;0.20;0.20;;;;;;;-3.45;67.84;101297.13;5098955;28;20023;-84
2022/12/13 07:38:33;;;;;;;1.27;1.25;;;;;;;-3.44;67.21;101293.72;5095984;28;20032;-82
2022/12/13 07:40:59;;;;;;;6.82;2.53;;;;;;;-3.46;67.17;101300.56;5087276;28;20519;-82
2022/12/13 07:43:28;;;;;;;0.20;0.20;;;;;;;-3.45;67.50;101299.72;5100739;28;20028;-81
2022/12/13 07:45:58;;;;;;;0.55;0.55;;;;;;;-3.47;67.56;101302.25;5100281;28;20035;-82
2022/12/13 07:48:25;;;;;;;0.20;0.20;;;;;;;-3.45;67.18;101312.66;5097532;28;20026;-81
2022/12/13 07:50:52;;;;;;;0.25;0.25;;;;;;;-3.44;67.31;101314.44;5087570;28;20592;-81
2022/12/13 07:53:21;;;;;;;0.20;0.20;;;;;;;-3.45;67.50;101310.09;5080909;28;20446;-81
2022/12/13 07:55:47;;;;;;;0.20;0.20;;;;;;;-3.45;67.20;101308.41;5078883;28;20037;-82
2022/12/13 07:58:14;;;;;;;0.20;0.20;;;;;;;-3.43;67.90;101303.28;5090670;28;20024;-83
2022/12/13 08:00:43;;;;;;;0.60;0.60;;;;;;;-3.43;67.59;101306.78;5093194;28;20021;-82
2022/12/13 08:03:09;;;;;;;0.20;0.20;;;;;;;-3.41;67.67;101299.06;5097646;28;20012;-82
2022/12/13 08:05:36;;;;;;;2.08;1.98;;;;;;;-3.41;68.11;101299.06;5088681;28;20092;-82
2022/12/13 08:08:05;;;;;;;0.90;0.90;;;;;;;-3.39;67.29;101301.72;5085954;28;20116;-82
2022/12/13 08:10:31;;;;;;;0.20;0.20;;;;;;;-3.37;67.88;101305.25;5101218;28;20147;-81
2022/12/13 08:12:58;;;;;;;0.20;0.20;;;;;;;-3.37;68.09;101303.53;5097034;28;20044;-81
2022/12/13 08:15:24;;;;;;;0.20;0.20;;;;;;;-3.37;67.70;101306.13;5094186;28;20028;-82
2022/12/13 08:17:55;;;;;;;0.68;0.68;;;;;;;-3.31;67.73;101311.59;5095763;28;20040;-81
2022/12/13 08:20:22;;;;;;;0.20;0.20;;;;;;;-3.31;67.64;101315.91;5097407;28;20031;-82
2022/12/13 08:22:56;;;;;;;1.05;1.05;;;;;;;-3.24;68.10;101317.91;5099337;28;20060;-83
2022/12/13 08:25:23;;;;;;;0.20;0.20;;;;;;;-3.23;67.84;101324.00;5088254;28;20044;-80
2022/12/13 08:27:49;;;;;;;0.55;0.55;;;;;;;-3.21;67.84;101319.78;5087943;28;20047;-81
2022/12/13 08:30:15;;;;;;;0.20;0.20;;;;;;;-3.20;67.37;101313.75;5078858;28;20035;-81
2022/12/13 08:32:41;;;;;;;0.20;0.20;;;;;;;-3.17;67.92;101312.19;5082858;28;20043;-82
2022/12/13 08:35:07;;;;;;;0.20;0.20;;;;;;;-3.15;68.10;101307.97;5083505;28;20029;-82
2022/12/13 08:37:34;;;;;;;0.20;0.20;;;;;;;-3.12;67.45;101310.69;5082882;28;20051;-82
2022/12/13 08:40:00;;;;;;;0.10;0.10;;;;;;;-3.10;67.92;101319.41;5084883;28;20044;-82
2022/12/13 08:42:26;;;;;;;0.22;0.22;;;;;;;-3.04;68.15;101320.50;5086341;28;20060;-82
2022/12/13 08:44:53;;;;;;;0.77;0.77;;;;;;;-3.00;67.91;101323.31;5089483;28;20040;-81
2022/12/13 08:47:25;;;;;;;3.85;3.60;;;;;;;-2.94;67.90;101331.34;5084293;28;20021;-83
2022/12/13 08:49:53;;;;;;;;;;;;;;;-2.80;67.97;101331.06;5086038;28;20107;-84
2022/12/13 08:52:21;;;;;;;0.80;0.80;;;;;;;-2.82;67.95;101332.69;5082506;28;19934;-84
2022/12/13 08:54:51;;;;;;;0.20;0.20;;;;;;;-2.78;67.99;101335.47;5087024;28;20024;-85
2022/12/13 08:57:17;;;;;;;0.20;0.20;;;;;;;-2.74;68.08;101325.22;5081965;28;20021;-83
2022/12/13 08:59:43;;;;;;;0.95;0.52;;;;;;;-2.68;68.19;101330.66;5084966;28;20146;-83
2022/12/13 09:02:12;;;;;;;1.88;1.50;;;;;;;-2.61;68.29;101327.50;5088508;28;20028;-83
2022/12/13 09:04:38;;;;;;;5.15;3.20;;;;;;;-2.57;68.23;101336.31;5084461;28;20031;-83
2022/12/13 09:07:05;;;;;;;0.25;0.25;;;;;;;-2.52;68.24;101333.06;5082928;28;20040;-83
2022/12/13 09:09:31;;;;;;;0.20;0.20;;;;;;;-2.46;68.41;101330.72;5084707;28;20032;-84
2022/12/13 09:11:57;;;;;;;4.35;4.00;;;;;;;-2.42;68.26;101329.16;5082868;28;20271;-84
2022/12/13 09:14:23;;;;;;;0.22;0.22;;;;;;;-2.37;68.35;101326.75;5083474;28;20078;-83
2022/12/13 09:16:49;;;;;;;0.20;0.20;;;;;;;-2.33;68.30;101329.53;5085438;28;20035;-83
2022/12/13 09:19:15;;;;;;;0.20;0.20;;;;;;;-2.26;68.34;101324.59;5098661;28;20012;-83
2022/12/13 09:21:41;;;;;;;0.20;0.20;;;;;;;-2.20;68.62;101336.09;5097907;28;20024;-83
2022/12/13 09:24:07;;;;;;;0.20;0.20;;;;;;;-2.14;68.44;101331.16;5102613;28;20032;-83
2022/12/13 09:26:33;;;;;;;0.20;0.20;;;;;;;-2.07;68.49;101327.06;5094388;28;20025;-83
2022/12/13 09:28:59;;;;;;;0.10;0.10;;;;;;;-2.00;68.33;101326.50;5094441;28;20056;-84
2022/12/13 09:31:25;;;;;;;0.20;0.20;;;;;;;-1.92;68.56;101316.38;5087524;28;20043;-83
2022/12/13 09:33:51;;;;;;;0.20;0.20;;;;;;;-1.84;68.72;101324.50;5085496;28;20032;-83
2022/12/13 09:36:19;;;;;;;0.75;0.75;;;;;;;-1.76;68.94;101323.06;5082852;28;20096;-81
2022/12/13 09:38:46;;;;;;;0.30;0.30;;;;;;;-1.67;69.24;101323.44;5098946;28;20036;-83
2022/12/13 09:41:21;;;;;;;0.40;0.40;;;;;;;-1.55;69.21;101322.13;5105703;28;20036;-83
2022/12/13 09:43:53;;;;;;;0.20;0.20;;;;;;;-1.45;69.09;101312.94;5081285;28;20039;-82
2022/12/13 09:49:11;;;;;;;0.10;0.10;;;;;;;-1.31;68.97;101312.63;5081873;28;20395;-80
2022/12/13 09:51:37;;;;;;;0.20;0.20;;;;;;;-1.25;69.23;101306.75;5042469;28;20417;-79
2022/12/13 09:54:04;;;;;;;0.20;0.20;;;;;;;-1.19;68.57;101306.97;5044150;28;20060;-79
2022/12/13 09:56:31;;;;;;;0.10;0.10;;;;;;;-1.11;69.05;101311.56;5036540;28;20039;-79
2022/12/13 09:58:58;;;;;;;0.20;0.20;;;;;;;-1.05;68.88;101294.44;5034634;28;20174;-80
2022/12/13 10:01:24;;;;;;;2.17;1.10;;;;;;;-1.01;68.81;101292.81;5037524;28;20030;-80
2022/12/13 10:03:57;;;;;;;0.30;0.30;;;;;;;-0.94;69.43;101299.16;5034614;28;20037;-80
2022/12/13 10:06:27;;;;;;;;;;;;;;;-0.75;69.00;101298.91;5038244;28;20096;-79
2022/12/13 10:08:57;;;;;;;0.20;0.20;;;;;;;-0.76;69.00;101294.56;5036459;28;19917;-79
2022/12/13 10:11:23;;;;;;;0.10;0.10;;;;;;;-0.67;69.10;101296.59;5032201;28;20160;-78
2022/12/13 10:19:17;;;;;;;0.10;0.10;;;;;;;-0.37;69.49;101286.28;5089976;27;1869275;-79
2022/12/13 10:21:45;;;;;;;0.70;0.32;;;;;;;-0.27;69.25;101281.38;5125830;28;20032;-79
2022/12/13 10:26:49;;;;;;;0.17;0.17;;;;;;;-0.07;69.37;101275.06;5061776;28;20435;-79
2022/12/13 10:29:15;;;;;;;0.20;0.20;;;;;;;0.03;69.36;101270.13;5065293;28;20025;-78
2022/12/13 10:31:45;;;;;;;0.28;0.28;;;;;;;0.11;69.29;101269.53;5055241;28;20088;-79
2022/12/13 10:34:24;;;;;;;0.20;0.20;;;;;;;0.20;69.28;101268.00;5052345;28;20051;-79
2022/12/13 10:36:51;;;;;;;0.80;0.80;;;;;;;0.23;68.84;101262.91;5062560;28;20108;-79
2022/12/13 10:39:37;;;;;;;0.20;0.20;;;;;;;0.32;68.82;101258.84;5059252;28;20056;-80
2022/12/13 10:42:14;;;;;;;0.57;0.57;;;;;;;0.35;68.58;101251.94;5050857;28;20089;-79
2022/12/13 10:44:41;;;;;;;0.20;0.20;;;;;;;0.35;68.48;101262.34;5044142;28;20412;-79
2022/12/13 10:49:55;;;;;;;0.88;0.88;;;;;;;0.44;68.24;101249.59;5100131;27;1404771;-79
2022/12/13 10:52:31;;;;;;;0.40;0.40;;;;;;;0.51;68.48;101248.91;5109632;27;20403;-79
2022/12/13 10:55:01;;;;;;;0.85;0.85;;;;;;;0.55;68.68;101245.56;5102472;28;20082;-80
2022/12/13 10:57:28;;;;;;;0.50;0.50;;;;;;;0.65;68.77;101251.91;5110381;28;20024;-80
2022/12/13 10:59:54;;;;;;;0.20;0.20;;;;;;;0.71;68.10;101236.44;5108662;28;20038;-80
2022/12/13 11:02:37;;;;;;;0.28;0.28;;;;;;;0.91;68.69;101242.19;5104179;28;20031;-82
2022/12/13 11:08:25;;;;;;;0.20;0.20;;;;;;;1.11;68.33;101229.63;5172255;27;20442;-85
2022/12/13 11:11:11;;;;;;;22.55;2.47;;;;;;;1.16;68.10;101232.38;5171377;27;20076;-84
2022/12/13 11:16:39;;;;;;;0.57;0.57;;;;;;;1.23;68.27;101225.56;5097995;27;1996951;-82
2022/12/13 11:19:17;;;;;;;1.05;1.05;;;;;;;1.30;68.94;101227.47;5139063;27;20032;-80
2022/12/13 11:21:48;;;;;;;0.25;0.25;;;;;;;1.32;68.29;101227.50;5123700;28;20035;-83
2022/12/13 11:24:32;;;;;;;0.20;0.20;;;;;;;1.42;68.65;101221.66;5118219;28;20036;-82
2022/12/13 11:27:08;;;;;;;3.60;1.95;;;;;;;1.44;68.65;101217.34;5112472;28;20034;-83
2022/12/13 11:29:48;;;;;;;1.40;1.40;;;;;;;1.50;68.50;101209.66;5118143;28;20027;-83
2022/12/13 11:32:34;;;;;;;0.43;0.43;;;;;;;1.55;68.32;101205.44;5111142;28;20064;-80
2022/12/13 11:35:25;;;;;;;2.10;0.73;;;;;;;1.60;68.33;101195.97;5109264;28;20450;-78
2022/12/13 11:38:06;;;;;;;0.20;0.20;;;;;;;1.64;68.28;101194.31;5108357;28;20035;-78
2022/12/13 11:40:36;;;;;;;0.20;0.20;;;;;;;1.60;68.01;101180.28;5111142;28;20032;-78
2022/12/13 11:43:24;;;;;;;0.20;0.20;;;;;;;1.66;67.64;101183.88;5113686;28;20023;-78
2022/12/13 11:45:57;;;;;;;0.20;0.20;;;;;;;1.65;68.32;101180.41;5112807;28;20032;-78
2022/12/13 11:48:39;;;;;;;1.50;1.50;;;;;;;1.65;67.49;101177.78;5113685;28;20032;-79
2022/12/13 11:51:10;;;;;;;0.50;0.50;;;;;;;1.66;67.64;101176.03;5118115;28;20031;-79
2022/12/13 11:53:59;;;;;;;0.20;0.20;;;;;;;1.68;67.46;101169.13;5132163;28;20288;-81
2022/12/13 11:56:34;;;;;;;0.20;0.20;;;;;;;1.61;67.54;101169.00;5120159;28;20040;-79
2022/12/13 12:01:52;;;;;;;0.20;0.20;;;;;;;1.65;67.28;101166.47;5161502;27;20769;-81
2022/12/13 12:04:42;;;;;;;0.20;0.20;;;;;;;1.69;67.81;101174.38;5153743;27;20066;-81
2022/12/13 12:07:14;;;;;;;0.20;0.20;;;;;;;1.72;67.30;101178.78;5154188;27;20057;-81
2022/12/13 12:09:51;;;;;;;0.20;0.20;;;;;;;1.80;67.88;101176.38;5144531;27;20405;-81
2022/12/13 12:12:33;;;;;;;0.43;0.43;;;;;;;1.84;67.41;101176.44;5140772;27;20470;-81
2022/12/13 12:15:24;;;;;;;0.20;0.20;;;;;;;1.88;67.50;101180.91;5159489;27;20058;-80
2022/12/13 12:17:53;;;;;;;0.55;0.55;;;;;;;1.89;67.20;101180.03;5154050;27;20030;-81
2022/12/13 12:20:32;;;;;;;0.20;0.20;;;;;;;1.98;67.18;101175.84;5155078;27;20030;-81
2022/12/13 12:23:14;;;;;;;7.47;3.13;;;;;;;2.05;67.23;101180.38;5134586;27;20090;-81
2022/12/13 12:25:52;;;;;;;0.30;0.30;;;;;;;2.13;67.30;101165.72;5157847;27;20076;-81